Time;durP1;ratioP1;P1;durP2;ratioP2;P2;SDS_P1;SDS_P2;PMS_P1;PMS_P2;Temp;Humidity;BMP_temperature;BMP_pressure;BME280_temperature;BME280_humidity;BME280_pressure;Samples;Min_cycle;Max_cycle;Signal;HPM_P1;HPM_P2
2022/05/23 00:13:12;;;;;;;7.13;3.50;;;;;;;10.32;70.31;99997.94;30979307;28;102432;-70
2022/05/23 00:28:12;;;;;;;7.22;3.72;;;;;;;10.02;71.23;99994.22;30979236;28;96806;-69
2022/05/23 00:43:20;;;;;;;6.65;3.53;;;;;;;9.75;72.43;100004.25;30977531;28;110410;-70
2022/05/23 00:58:30;;;;;;;7.10;4.27;;;;;;;9.44;73.42;100012.94;30977002;28;96618;-69
2022/05/23 01:13:31;;;;;;;9.27;4.00;;;;;;;9.30;74.04;99993.16;30975250;28;98629;-70
2022/05/23 01:28:34;;;;;;;6.05;4.15;;;;;;;9.06;74.87;99991.34;30992953;28;96887;-70
2022/05/23 01:43:35;;;;;;;6.77;4.13;;;;;;;8.91;75.23;99985.00;30995063;28;97563;-73
2022/05/23 02:13:54;;;;;;;7.30;4.80;;;;;;;8.41;77.26;99957.53;30992587;28;96863;-69
2022/05/23 02:28:55;;;;;;;7.80;4.75;;;;;;;8.23;77.47;99944.34;30989195;28;105045;-70
2022/05/23 02:43:55;;;;;;;14.48;4.28;;;;;;;8.07;77.22;99951.25;30988638;28;97728;-73
2022/05/23 02:58:55;;;;;;;9.73;5.03;;;;;;;8.00;78.19;99957.38;30986964;28;103521;-70
2022/05/23 03:13:56;;;;;;;12.05;5.43;;;;;;;8.07;77.73;99950.44;30983549;28;96574;-69
2022/05/23 03:28:56;;;;;;;15.77;6.53;;;;;;;8.20;77.19;99965.91;30982467;28;107673;-71
2022/05/23 03:43:56;;;;;;;12.50;5.60;;;;;;;8.46;77.08;99971.16;30982534;28;96987;-68
2022/05/23 03:58:57;;;;;;;10.57;5.38;;;;;;;8.76;75.39;99977.72;30980795;28;97418;-68
2022/05/23 04:13:57;;;;;;;7.85;5.60;;;;;;;9.04;75.05;99984.53;30977211;28;96816;-69
2022/05/23 04:28:57;;;;;;;10.93;5.80;;;;;;;9.41;74.75;99997.31;30974349;28;96916;-68
2022/05/23 04:43:59;;;;;;;10.23;6.03;;;;;;;10.04;74.78;100002.84;30973162;28;97452;-69
2022/05/23 04:59:00;;;;;;;16.15;6.00;;;;;;;10.62;72.96;99998.16;30984920;28;97406;-69
2022/05/23 05:14:00;;;;;;;9.93;6.65;;;;;;;11.12;72.27;100000.47;30994390;28;96845;-68
2022/05/23 05:29:00;;;;;;;9.82;7.88;;;;;;;11.64;70.54;100007.69;31008694;28;100884;-72
2022/05/23 05:44:07;;;;;;;11.77;7.95;;;;;;;12.07;67.81;100009.78;30989293;28;99100;-77
2022/05/23 05:59:08;;;;;;;13.00;9.17;;;;;;;12.56;66.05;100003.00;30989235;28;96940;-69
2022/05/23 06:14:08;;;;;;;8.32;5.65;;;;;;;13.00;64.50;99987.84;30985275;28;98164;-70
2022/05/23 06:29:08;;;;;;;9.30;6.28;;;;;;;13.53;63.20;99977.63;30987556;28;96680;-69
2022/05/23 06:44:09;;;;;;;11.02;4.82;;;;;;;13.94;59.56;99985.91;30986238;28;100268;-73
2022/05/23 06:59:11;;;;;;;6.50;4.45;;;;;;;14.31;57.46;99968.56;30985282;28;96811;-74
2022/05/23 07:14:11;;;;;;;5.53;3.77;;;;;;;14.81;54.19;99946.06;30982365;28;97209;-69
2022/05/23 07:29:12;;;;;;;8.55;3.90;;;;;;;15.61;52.54;99929.09;30978881;28;97312;-73
2022/05/23 07:44:12;;;;;;;4.32;2.40;;;;;;;16.48;47.69;99913.47;30976029;28;97952;-75
2022/05/23 08:14:32;;;;;;;3.83;2.07;;;;;;;18.19;42.45;99896.22;30978662;28;97420;-72
2022/05/23 08:29:35;;;;;;;3.33;1.20;;;;;;;19.11;39.86;99896.94;30974770;28;96693;-73
2022/05/23 08:44:41;;;;;;;3.97;1.73;;;;;;;19.61;36.67;99891.06;30973037;28;96738;-72
2022/05/23 08:59:45;;;;;;;4.97;2.33;;;;;;;20.22;36.30;99871.72;30972970;28;96916;-75
2022/05/23 09:14:46;;;;;;;2.43;1.10;;;;;;;20.56;34.24;99858.28;30970834;28;97740;-73
2022/05/23 09:29:51;;;;;;;2.83;1.25;;;;;;;21.54;32.51;99835.41;30969728;28;97790;-74
2022/05/23 10:00:18;;;;;;;1.80;1.00;;;;;;;22.38;29.95;99810.84;30991961;28;97127;-74
2022/05/23 10:15:28;;;;;;;2.77;1.37;;;;;;;22.74;28.39;99802.97;30987120;28;96759;-73
2022/05/23 10:30:33;;;;;;;2.33;0.90;;;;;;;23.73;27.13;99786.09;30985710;28;96791;-75
2022/05/23 10:45:37;;;;;;;1.43;0.93;;;;;;;24.29;26.32;99780.81;30985447;28;97104;-74
2022/05/23 11:00:53;;;;;;;3.87;1.23;;;;;;;25.17;25.02;99746.06;30981284;28;96793;-75
2022/05/23 11:16:02;;;;;;;3.63;1.83;;;;;;;24.85;25.19;99746.47;30982176;28;96844;-73
2022/05/23 11:47:17;;;;;;;2.93;0.90;;;;;;;24.77;23.63;99708.91;30977273;28;97259;-75
2022/05/23 12:02:21;;;;;;;1.23;0.93;;;;;;;24.93;23.87;99713.22;30976700;28;97322;-75
2022/05/23 12:17:27;;;;;;;1.27;0.90;;;;;;;25.01;24.84;99670.94;30974072;28;96931;-73
2022/05/23 12:32:28;;;;;;;2.53;1.10;;;;;;;24.43;25.75;99652.31;30974004;28;97082;-75
2022/05/23 12:47:50;;;;;;;3.93;1.00;;;;;;;24.72;24.62;99616.31;30971472;28;96880;-75
2022/05/23 13:03:01;;;;;;;2.00;1.00;;;;;;;24.87;24.16;99586.28;30973412;28;96745;-75
2022/05/23 13:33:29;;;;;;;2.80;1.10;;;;;;;23.87;26.25;99577.81;30992923;28;97057;-76
2022/05/23 13:48:34;;;;;;;3.97;1.10;;;;;;;23.37;26.83;99544.09;30991001;28;96779;-72
2022/05/23 14:03:40;;;;;;;3.33;1.00;;;;;;;23.29;25.56;99532.69;30989542;28;97431;-74
2022/05/23 14:18:41;;;;;;;1.53;0.90;;;;;;;23.47;25.83;99527.81;30988339;28;97194;-73
2022/05/23 14:33:43;;;;;;;2.10;0.93;;;;;;;23.74;24.90;99526.69;30976802;28;97028;-72
2022/05/23 14:48:55;;;;;;;1.93;0.97;;;;;;;23.52;26.09;99519.63;30966959;28;97394;-75
2022/05/23 15:03:56;;;;;;;1.93;0.97;;;;;;;23.07;26.50;99492.16;30969549;28;97028;-73
2022/05/23 15:18:58;;;;;;;3.83;1.40;;;;;;;22.77;27.05;99484.78;30968743;28;97448;-75
2022/05/23 15:33:58;;;;;;;5.20;1.30;;;;;;;21.85;27.58;99464.31;30937611;28;97563;-74
2022/05/23 15:48:58;;;;;;;4.05;1.48;;;;;;;21.41;28.87;99442.91;30961719;28;98239;-75
2022/05/23 16:03:59;;;;;;;2.03;1.05;;;;;;;21.11;28.98;99428.03;30969118;28;98099;-74
2022/05/23 16:18:59;;;;;;;1.83;1.10;;;;;;;20.73;30.01;99421.75;30974974;28;97237;-75
2022/05/23 16:49:19;;;;;;;3.77;1.20;;;;;;;20.26;30.44;99418.53;31021167;28;97061;-76
2022/05/23 17:04:19;;;;;;;2.85;1.02;;;;;;;19.84;30.88;99400.19;31059262;28;96700;-74
2022/05/23 17:19:21;;;;;;;7.00;2.50;;;;;;;19.48;31.59;99388.88;31016729;28;112981;-74
2022/05/23 17:34:21;;;;;;;4.30;2.30;;;;;;;19.39;31.48;99374.16;30988776;28;97241;-74
2022/05/23 17:49:21;;;;;;;2.63;1.40;;;;;;;19.12;32.19;99372.13;30980182;28;107597;-75
2022/05/23 18:04:22;;;;;;;6.60;2.25;;;;;;;18.74;33.26;99358.31;30982981;28;109782;-74
2022/05/23 18:19:23;;;;;;;5.00;1.40;;;;;;;18.36;33.93;99367.09;30987922;28;96774;-78
2022/05/23 18:34:23;;;;;;;5.15;1.20;;;;;;;17.90;35.48;99358.88;30986101;28;97733;-75
2022/05/23 18:49:42;;;;;;;4.05;1.33;;;;;;;17.50;36.32;99355.09;30925408;28;96869;-71
2022/05/23 19:04:42;;;;;;;2.90;1.60;;;;;;;17.00;37.26;99348.31;30986274;28;97364;-70
2022/05/23 19:19:43;;;;;;;4.40;1.30;;;;;;;16.58;38.65;99349.19;30982158;28;96869;-76
2022/05/23 19:34:44;;;;;;;8.15;1.80;;;;;;;16.32;39.52;99349.56;30980350;28;96816;-70
2022/05/23 19:49:44;;;;;;;6.73;2.50;;;;;;;16.10;40.24;99358.13;30981794;28;96823;-74
2022/05/23 20:20:05;;;;;;;10.00;4.87;;;;;;;15.52;42.43;99325.31;30976168;28;96782;-72
2022/05/23 20:35:07;;;;;;;6.50;1.90;;;;;;;15.27;43.48;99305.78;30974327;28;96747;-75
2022/05/23 20:50:17;;;;;;;4.60;2.87;;;;;;;15.12;44.25;99300.78;30971499;28;97538;-73
2022/05/23 21:05:21;;;;;;;5.73;2.17;;;;;;;15.17;44.02;99320.56;30970618;28;97340;-74
2022/05/23 21:20:21;;;;;;;5.67;2.80;;;;;;;15.19;44.69;99309.59;30970630;28;96953;-75
2022/05/23 21:35:22;;;;;;;7.95;2.45;;;;;;;15.26;45.35;99293.44;30972877;28;97207;-75
2022/05/23 21:50:22;;;;;;;11.95;2.38;;;;;;;15.30;46.06;99295.44;30993908;28;97467;-74
2022/05/23 22:05:22;;;;;;;7.03;2.75;;;;;;;15.29;46.48;99317.94;30992786;28;101239;-75
2022/05/23 22:20:23;;;;;;;6.30;2.50;;;;;;;15.32;47.05;99333.63;30992872;28;97467;-75
2022/05/23 22:35:25;;;;;;;4.15;2.25;;;;;;;15.22;49.13;99335.97;30991471;28;96656;-74
2022/05/23 22:50:29;;;;;;;6.70;2.10;;;;;;;15.10;50.51;99329.69;30988189;28;97467;-74
2022/05/23 23:05:29;;;;;;;3.70;2.10;;;;;;;14.97;51.18;99306.53;30987280;28;97283;-74
2022/05/23 23:20:30;;;;;;;5.32;2.80;;;;;;;14.87;51.45;99283.69;30986716;28;96608;-75
2022/05/23 23:50:49;;;;;;;5.63;2.37;;;;;;;14.64;52.15;99254.00;30985488;28;96882;-74
